sensor_id;sensor_type;location;lat;lon;timestamp;P1;durP1;ratioP1;P2;durP2;ratioP2
77085;SDS011;66014;53.134;18.006;2023-06-22T00:01:23;13.50;;;8.90;;
77085;SDS011;66014;53.134;18.006;2023-06-22T00:03:51;12.70;;;8.60;;
77085;SDS011;66014;53.134;18.006;2023-06-22T00:06:20;10.70;;;8.20;;
77085;SDS011;66014;53.134;18.006;2023-06-22T00:08:46;10.60;;;8.30;;
77085;SDS011;66014;53.134;18.006;2023-06-22T00:11:13;12.90;;;8.30;;
77085;SDS011;66014;53.134;18.006;2023-06-22T00:13:40;15.40;;;9.10;;
77085;SDS011;66014;53.134;18.006;2023-06-22T00:16:06;12.40;;;8.30;;
77085;SDS011;66014;53.134;18.006;2023-06-22T00:18:33;12.70;;;8.50;;
77085;SDS011;66014;53.134;18.006;2023-06-22T00:20:59;12.90;;;9.60;;
77085;SDS011;66014;53.134;18.006;2023-06-22T00:23:26;14.40;;;9.70;;
77085;SDS011;66014;53.134;18.006;2023-06-22T00:25:53;18.40;;;12.70;;
77085;SDS011;66014;53.134;18.006;2023-06-22T00:28:19;20.50;;;14.80;;
77085;SDS011;66014;53.134;18.006;2023-06-22T00:30:51;25.70;;;16.30;;
77085;SDS011;66014;53.134;18.006;2023-06-22T00:33:20;25.50;;;18.70;;
77085;SDS011;66014;53.134;18.006;2023-06-22T00:35:47;26.10;;;19.20;;
77085;SDS011;66014;53.134;18.006;2023-06-22T00:38:13;24.90;;;17.30;;
77085;SDS011;66014;53.134;18.006;2023-06-22T00:40:40;21.40;;;15.40;;
77085;SDS011;66014;53.134;18.006;2023-06-22T00:43:06;21.20;;;14.50;;
77085;SDS011;66014;53.134;18.006;2023-06-22T00:45:33;19.20;;;14.20;;
77085;SDS011;66014;53.134;18.006;2023-06-22T00:48:00;19.10;;;13.50;;
77085;SDS011;66014;53.134;18.006;2023-06-22T00:50:28;19.40;;;13.00;;
77085;SDS011;66014;53.134;18.006;2023-06-22T00:53:00;17.40;;;13.10;;
77085;SDS011;66014;53.134;18.006;2023-06-22T00:55:38;15.40;;;11.80;;
77085;SDS011;66014;53.134;18.006;2023-06-22T00:58:17;17.10;;;11.80;;
77085;SDS011;66014;53.134;18.006;2023-06-22T01:00:48;17.50;;;12.00;;
77085;SDS011;66014;53.134;18.006;2023-06-22T01:03:15;16.10;;;11.10;;
77085;SDS011;66014;53.134;18.006;2023-06-22T01:05:43;16.50;;;11.00;;
77085;SDS011;66014;53.134;18.006;2023-06-22T01:08:31;17.80;;;11.00;;
77085;SDS011;66014;53.134;18.006;2023-06-22T01:11:12;13.50;;;9.50;;
77085;SDS011;66014;53.134;18.006;2023-06-22T01:13:52;14.20;;;10.50;;
77085;SDS011;66014;53.134;18.006;2023-06-22T01:19:00;14.30;;;10.60;;
77085;SDS011;66014;53.134;18.006;2023-06-22T01:21:36;14.50;;;9.60;;
77085;SDS011;66014;53.134;18.006;2023-06-22T01:24:10;12.20;;;9.00;;
77085;SDS011;66014;53.134;18.006;2023-06-22T01:26:54;13.30;;;9.30;;
77085;SDS011;66014;53.134;18.006;2023-06-22T01:29:31;15.50;;;9.80;;
77085;SDS011;66014;53.134;18.006;2023-06-22T01:31:59;15.00;;;8.70;;
77085;SDS011;66014;53.134;18.006;2023-06-22T01:34:30;13.70;;;8.50;;
77085;SDS011;66014;53.134;18.006;2023-06-22T01:36:58;12.70;;;9.00;;
77085;SDS011;66014;53.134;18.006;2023-06-22T01:39:26;12.50;;;8.70;;
77085;SDS011;66014;53.134;18.006;2023-06-22T01:41:53;11.40;;;7.40;;
77085;SDS011;66014;53.134;18.006;2023-06-22T01:44:22;10.10;;;7.20;;
77085;SDS011;66014;53.134;18.006;2023-06-22T01:46:52;8.60;;;6.70;;
77085;SDS011;66014;53.134;18.006;2023-06-22T01:49:26;12.40;;;7.60;;
77085;SDS011;66014;53.134;18.006;2023-06-22T01:51:59;10.00;;;6.70;;
77085;SDS011;66014;53.134;18.006;2023-06-22T01:54:30;10.00;;;6.40;;
77085;SDS011;66014;53.134;18.006;2023-06-22T01:57:03;12.00;;;6.80;;
77085;SDS011;66014;53.134;18.006;2023-06-22T01:59:34;9.60;;;6.80;;
77085;SDS011;66014;53.134;18.006;2023-06-22T02:02:25;10.10;;;6.60;;
77085;SDS011;66014;53.134;18.006;2023-06-22T02:05:02;11.70;;;5.90;;
77085;SDS011;66014;53.134;18.006;2023-06-22T02:07:52;10.80;;;5.90;;
77085;SDS011;66014;53.134;18.006;2023-06-22T02:10:34;9.90;;;6.20;;
77085;SDS011;66014;53.134;18.006;2023-06-22T02:13:07;10.50;;;5.60;;
77085;SDS011;66014;53.134;18.006;2023-06-22T02:15:44;8.70;;;6.50;;
77085;SDS011;66014;53.134;18.006;2023-06-22T02:18:19;10.20;;;5.80;;
77085;SDS011;66014;53.134;18.006;2023-06-22T02:20:46;12.10;;;6.00;;
77085;SDS011;66014;53.134;18.006;2023-06-22T02:23:13;10.00;;;6.70;;
77085;SDS011;66014;53.134;18.006;2023-06-22T02:25:41;11.20;;;6.60;;
77085;SDS011;66014;53.134;18.006;2023-06-22T02:28:10;9.00;;;6.70;;
77085;SDS011;66014;53.134;18.006;2023-06-22T02:30:37;9.40;;;6.60;;
77085;SDS011;66014;53.134;18.006;2023-06-22T02:33:10;10.50;;;7.10;;
77085;SDS011;66014;53.134;18.006;2023-06-22T02:35:37;12.60;;;7.90;;
77085;SDS011;66014;53.134;18.006;2023-06-22T02:38:16;15.00;;;8.40;;
77085;SDS011;66014;53.134;18.006;2023-06-22T02:40:49;12.30;;;7.30;;
77085;SDS011;66014;53.134;18.006;2023-06-22T02:43:25;12.00;;;7.00;;
77085;SDS011;66014;53.134;18.006;2023-06-22T02:46:01;9.60;;;6.60;;
77085;SDS011;66014;53.134;18.006;2023-06-22T02:48:33;10.40;;;7.40;;
77085;SDS011;66014;53.134;18.006;2023-06-22T02:51:01;11.60;;;6.60;;
77085;SDS011;66014;53.134;18.006;2023-06-22T02:53:28;10.70;;;6.60;;
77085;SDS011;66014;53.134;18.006;2023-06-22T02:55:55;10.80;;;6.90;;
77085;SDS011;66014;53.134;18.006;2023-06-22T02:58:22;9.30;;;5.90;;
77085;SDS011;66014;53.134;18.006;2023-06-22T03:00:48;7.90;;;5.20;;
77085;SDS011;66014;53.134;18.006;2023-06-22T03:03:19;8.60;;;5.30;;
77085;SDS011;66014;53.134;18.006;2023-06-22T03:05:46;10.30;;;5.30;;
77085;SDS011;66014;53.134;18.006;2023-06-22T03:08:13;7.90;;;4.90;;
77085;SDS011;66014;53.134;18.006;2023-06-22T03:10:40;6.30;;;4.60;;
77085;SDS011;66014;53.134;18.006;2023-06-22T03:13:09;7.30;;;4.80;;
77085;SDS011;66014;53.134;18.006;2023-06-22T03:15:35;9.70;;;4.90;;
77085;SDS011;66014;53.134;18.006;2023-06-22T03:18:03;8.20;;;4.60;;
77085;SDS011;66014;53.134;18.006;2023-06-22T03:20:30;10.20;;;4.60;;
77085;SDS011;66014;53.134;18.006;2023-06-22T03:23:00;8.10;;;4.50;;
77085;SDS011;66014;53.134;18.006;2023-06-22T03:25:35;8.10;;;4.60;;
77085;SDS011;66014;53.134;18.006;2023-06-22T03:28:03;11.00;;;4.80;;
77085;SDS011;66014;53.134;18.006;2023-06-22T03:30:29;7.20;;;4.50;;
77085;SDS011;66014;53.134;18.006;2023-06-22T03:32:56;8.70;;;5.10;;
77085;SDS011;66014;53.134;18.006;2023-06-22T03:35:22;6.30;;;4.20;;
77085;SDS011;66014;53.134;18.006;2023-06-22T03:37:49;9.60;;;5.10;;
77085;SDS011;66014;53.134;18.006;2023-06-22T03:40:15;19.40;;;8.50;;
77085;SDS011;66014;53.134;18.006;2023-06-22T03:42:42;9.20;;;6.00;;
77085;SDS011;66014;53.134;18.006;2023-06-22T03:45:09;11.20;;;5.10;;
77085;SDS011;66014;53.134;18.006;2023-06-22T03:47:36;10.60;;;5.40;;
77085;SDS011;66014;53.134;18.006;2023-06-22T03:50:02;7.50;;;5.20;;
77085;SDS011;66014;53.134;18.006;2023-06-22T03:52:32;9.70;;;5.60;;
77085;SDS011;66014;53.134;18.006;2023-06-22T03:54:58;8.80;;;5.10;;
77085;SDS011;66014;53.134;18.006;2023-06-22T03:57:25;9.20;;;4.70;;
77085;SDS011;66014;53.134;18.006;2023-06-22T03:59:51;8.10;;;4.60;;
77085;SDS011;66014;53.134;18.006;2023-06-22T04:02:18;9.80;;;4.40;;
77085;SDS011;66014;53.134;18.006;2023-06-22T04:04:44;6.70;;;4.40;;
77085;SDS011;66014;53.134;18.006;2023-06-22T04:07:11;9.30;;;4.60;;
77085;SDS011;66014;53.134;18.006;2023-06-22T04:09:37;8.40;;;4.00;;
77085;SDS011;66014;53.134;18.006;2023-06-22T04:12:04;6.20;;;3.90;;
77085;SDS011;66014;53.134;18.006;2023-06-22T04:14:31;7.00;;;4.00;;
77085;SDS011;66014;53.134;18.006;2023-06-22T04:16:57;8.50;;;4.20;;
77085;SDS011;66014;53.134;18.006;2023-06-22T04:19:25;6.80;;;4.30;;
77085;SDS011;66014;53.134;18.006;2023-06-22T04:21:51;8.30;;;4.40;;
77085;SDS011;66014;53.134;18.006;2023-06-22T04:24:18;6.90;;;4.10;;
77085;SDS011;66014;53.134;18.006;2023-06-22T04:26:44;7.60;;;4.20;;
77085;SDS011;66014;53.134;18.006;2023-06-22T04:29:13;10.20;;;4.20;;
77085;SDS011;66014;53.134;18.006;2023-06-22T04:31:40;5.50;;;3.70;;
77085;SDS011;66014;53.134;18.006;2023-06-22T04:34:07;11.10;;;5.80;;
77085;SDS011;66014;53.134;18.006;2023-06-22T04:36:38;7.70;;;4.40;;
77085;SDS011;66014;53.134;18.006;2023-06-22T04:41:36;7.10;;;3.70;;
77085;SDS011;66014;53.134;18.006;2023-06-22T04:46:38;11.00;;;4.20;;
77085;SDS011;66014;53.134;18.006;2023-06-22T04:49:07;7.60;;;4.00;;
77085;SDS011;66014;53.134;18.006;2023-06-22T04:51:41;9.90;;;4.30;;
77085;SDS011;66014;53.134;18.006;2023-06-22T04:54:25;8.00;;;4.40;;
77085;SDS011;66014;53.134;18.006;2023-06-22T04:56:52;9.10;;;4.10;;
77085;SDS011;66014;53.134;18.006;2023-06-22T04:59:28;10.20;;;4.20;;
77085;SDS011;66014;53.134;18.006;2023-06-22T05:04:29;9.90;;;4.00;;
77085;SDS011;66014;53.134;18.006;2023-06-22T05:06:59;11.00;;;4.30;;
77085;SDS011;66014;53.134;18.006;2023-06-22T05:09:27;5.80;;;3.80;;
77085;SDS011;66014;53.134;18.006;2023-06-22T05:11:54;6.60;;;3.80;;
77085;SDS011;66014;53.134;18.006;2023-06-22T05:14:22;6.00;;;3.80;;
77085;SDS011;66014;53.134;18.006;2023-06-22T05:16:49;7.00;;;4.40;;
77085;SDS011;66014;53.134;18.006;2023-06-22T05:19:18;6.60;;;4.00;;
77085;SDS011;66014;53.134;18.006;2023-06-22T05:21:47;8.00;;;4.10;;
77085;SDS011;66014;53.134;18.006;2023-06-22T05:24:14;6.10;;;3.70;;
77085;SDS011;66014;53.134;18.006;2023-06-22T05:26:40;6.90;;;3.70;;
77085;SDS011;66014;53.134;18.006;2023-06-22T05:29:07;8.30;;;3.90;;
77085;SDS011;66014;53.134;18.006;2023-06-22T05:31:35;6.40;;;4.10;;
77085;SDS011;66014;53.134;18.006;2023-06-22T05:34:05;8.60;;;3.90;;
77085;SDS011;66014;53.134;18.006;2023-06-22T05:36:33;7.50;;;4.00;;
77085;SDS011;66014;53.134;18.006;2023-06-22T05:39:00;6.40;;;4.10;;
77085;SDS011;66014;53.134;18.006;2023-06-22T05:41:38;10.60;;;3.80;;
77085;SDS011;66014;53.134;18.006;2023-06-22T05:44:05;9.50;;;4.00;;
77085;SDS011;66014;53.134;18.006;2023-06-22T05:46:32;12.90;;;4.30;;
77085;SDS011;66014;53.134;18.006;2023-06-22T05:48:59;11.80;;;4.40;;
77085;SDS011;66014;53.134;18.006;2023-06-22T05:51:25;7.90;;;3.80;;
77085;SDS011;66014;53.134;18.006;2023-06-22T05:54:01;5.90;;;3.20;;
77085;SDS011;66014;53.134;18.006;2023-06-22T05:56:27;8.50;;;3.30;;
77085;SDS011;66014;53.134;18.006;2023-06-22T05:58:54;8.20;;;3.60;;
77085;SDS011;66014;53.134;18.006;2023-06-22T06:01:20;5.90;;;3.70;;
77085;SDS011;66014;53.134;18.006;2023-06-22T06:03:47;6.60;;;3.10;;
77085;SDS011;66014;53.134;18.006;2023-06-22T06:06:16;7.40;;;3.70;;
77085;SDS011;66014;53.134;18.006;2023-06-22T06:08:43;7.10;;;3.80;;
77085;SDS011;66014;53.134;18.006;2023-06-22T06:11:09;11.80;;;3.90;;
77085;SDS011;66014;53.134;18.006;2023-06-22T06:13:36;8.10;;;4.00;;
77085;SDS011;66014;53.134;18.006;2023-06-22T06:16:02;6.40;;;3.50;;
77085;SDS011;66014;53.134;18.006;2023-06-22T06:18:29;7.00;;;3.10;;
77085;SDS011;66014;53.134;18.006;2023-06-22T06:20:56;7.70;;;2.80;;
77085;SDS011;66014;53.134;18.006;2023-06-22T06:23:25;5.90;;;2.80;;
77085;SDS011;66014;53.134;18.006;2023-06-22T06:25:52;5.40;;;2.70;;
77085;SDS011;66014;53.134;18.006;2023-06-22T06:28:18;4.70;;;2.60;;
77085;SDS011;66014;53.134;18.006;2023-06-22T06:30:45;6.20;;;2.40;;
77085;SDS011;66014;53.134;18.006;2023-06-22T06:33:13;5.20;;;2.40;;
77085;SDS011;66014;53.134;18.006;2023-06-22T06:35:41;6.00;;;2.40;;
77085;SDS011;66014;53.134;18.006;2023-06-22T06:38:08;5.70;;;2.20;;
77085;SDS011;66014;53.134;18.006;2023-06-22T06:40:34;4.90;;;2.20;;
77085;SDS011;66014;53.134;18.006;2023-06-22T06:43:01;5.60;;;2.10;;
77085;SDS011;66014;53.134;18.006;2023-06-22T06:45:27;3.50;;;1.90;;
77085;SDS011;66014;53.134;18.006;2023-06-22T06:47:55;4.60;;;2.00;;
77085;SDS011;66014;53.134;18.006;2023-06-22T06:50:21;5.10;;;2.20;;
77085;SDS011;66014;53.134;18.006;2023-06-22T06:52:49;4.00;;;2.10;;
77085;SDS011;66014;53.134;18.006;2023-06-22T06:55:16;4.60;;;2.00;;
77085;SDS011;66014;53.134;18.006;2023-06-22T06:57:43;4.30;;;2.10;;
77085;SDS011;66014;53.134;18.006;2023-06-22T07:00:11;3.80;;;2.10;;
77085;SDS011;66014;53.134;18.006;2023-06-22T07:02:40;4.60;;;2.00;;
77085;SDS011;66014;53.134;18.006;2023-06-22T07:05:12;5.00;;;2.30;;
77085;SDS011;66014;53.134;18.006;2023-06-22T07:07:39;5.30;;;2.30;;
77085;SDS011;66014;53.134;18.006;2023-06-22T07:10:05;8.30;;;3.60;;
77085;SDS011;66014;53.134;18.006;2023-06-22T07:12:32;4.60;;;2.10;;
77085;SDS011;66014;53.134;18.006;2023-06-22T07:15:06;3.40;;;1.60;;
77085;SDS011;66014;53.134;18.006;2023-06-22T07:17:34;6.10;;;2.10;;
77085;SDS011;66014;53.134;18.006;2023-06-22T07:20:02;4.10;;;2.40;;
77085;SDS011;66014;53.134;18.006;2023-06-22T07:22:35;3.40;;;1.70;;
77085;SDS011;66014;53.134;18.006;2023-06-22T07:25:02;4.40;;;1.70;;
77085;SDS011;66014;53.134;18.006;2023-06-22T07:27:36;3.70;;;1.60;;
77085;SDS011;66014;53.134;18.006;2023-06-22T07:32:31;3.70;;;1.70;;
77085;SDS011;66014;53.134;18.006;2023-06-22T07:34:57;3.70;;;1.70;;
77085;SDS011;66014;53.134;18.006;2023-06-22T07:37:24;3.90;;;1.80;;
77085;SDS011;66014;53.134;18.006;2023-06-22T07:39:51;9.20;;;2.10;;
77085;SDS011;66014;53.134;18.006;2023-06-22T07:42:19;5.30;;;2.00;;
77085;SDS011;66014;53.134;18.006;2023-06-22T07:44:46;4.00;;;1.60;;
77085;SDS011;66014;53.134;18.006;2023-06-22T07:47:13;4.30;;;2.00;;
77085;SDS011;66014;53.134;18.006;2023-06-22T07:49:39;5.60;;;1.80;;
77085;SDS011;66014;53.134;18.006;2023-06-22T07:52:06;5.10;;;2.30;;
77085;SDS011;66014;53.134;18.006;2023-06-22T07:54:32;5.00;;;1.80;;
77085;SDS011;66014;53.134;18.006;2023-06-22T07:56:59;3.90;;;2.00;;
77085;SDS011;66014;53.134;18.006;2023-06-22T07:59:26;3.20;;;1.40;;
77085;SDS011;66014;53.134;18.006;2023-06-22T08:04:22;3.60;;;2.20;;
77085;SDS011;66014;53.134;18.006;2023-06-22T08:06:48;9.70;;;2.30;;
77085;SDS011;66014;53.134;18.006;2023-06-22T08:09:18;4.20;;;1.90;;
77085;SDS011;66014;53.134;18.006;2023-06-22T08:11:46;3.10;;;1.90;;
77085;SDS011;66014;53.134;18.006;2023-06-22T08:14:12;4.60;;;1.50;;
77085;SDS011;66014;53.134;18.006;2023-06-22T08:16:39;2.90;;;1.70;;
77085;SDS011;66014;53.134;18.006;2023-06-22T08:19:05;4.30;;;1.70;;
77085;SDS011;66014;53.134;18.006;2023-06-22T08:21:34;3.70;;;2.00;;
77085;SDS011;66014;53.134;18.006;2023-06-22T08:24:00;3.40;;;1.60;;
77085;SDS011;66014;53.134;18.006;2023-06-22T08:26:28;4.00;;;1.70;;
77085;SDS011;66014;53.134;18.006;2023-06-22T08:28:55;6.00;;;1.70;;
77085;SDS011;66014;53.134;18.006;2023-06-22T08:31:21;2.90;;;1.70;;
77085;SDS011;66014;53.134;18.006;2023-06-22T08:33:48;3.60;;;1.60;;
77085;SDS011;66014;53.134;18.006;2023-06-22T08:36:14;5.50;;;2.00;;
77085;SDS011;66014;53.134;18.006;2023-06-22T08:38:42;5.60;;;1.60;;
77085;SDS011;66014;53.134;18.006;2023-06-22T08:41:08;4.70;;;1.70;;
77085;SDS011;66014;53.134;18.006;2023-06-22T08:43:35;6.50;;;2.30;;
77085;SDS011;66014;53.134;18.006;2023-06-22T08:46:01;6.20;;;2.20;;
77085;SDS011;66014;53.134;18.006;2023-06-22T08:48:29;3.80;;;1.50;;
77085;SDS011;66014;53.134;18.006;2023-06-22T08:50:55;8.70;;;2.40;;
77085;SDS011;66014;53.134;18.006;2023-06-22T08:53:22;3.50;;;1.80;;
77085;SDS011;66014;53.134;18.006;2023-06-22T08:55:48;3.80;;;1.40;;
77085;SDS011;66014;53.134;18.006;2023-06-22T08:58:17;4.10;;;1.80;;
77085;SDS011;66014;53.134;18.006;2023-06-22T09:00:44;4.20;;;1.90;;
77085;SDS011;66014;53.134;18.006;2023-06-22T09:03:11;3.90;;;1.70;;
77085;SDS011;66014;53.134;18.006;2023-06-22T09:05:37;3.80;;;1.60;;
77085;SDS011;66014;53.134;18.006;2023-06-22T09:08:04;4.30;;;1.80;;
77085;SDS011;66014;53.134;18.006;2023-06-22T09:10:31;4.70;;;2.10;;
77085;SDS011;66014;53.134;18.006;2023-06-22T09:12:57;4.30;;;1.60;;
77085;SDS011;66014;53.134;18.006;2023-06-22T09:15:24;4.40;;;1.70;;
77085;SDS011;66014;53.134;18.006;2023-06-22T09:17:51;4.70;;;1.80;;
77085;SDS011;66014;53.134;18.006;2023-06-22T09:20:20;7.00;;;1.90;;
77085;SDS011;66014;53.134;18.006;2023-06-22T09:22:47;4.30;;;1.70;;
77085;SDS011;66014;53.134;18.006;2023-06-22T09:25:13;4.70;;;1.80;;
77085;SDS011;66014;53.134;18.006;2023-06-22T09:27:40;2.80;;;1.50;;
77085;SDS011;66014;53.134;18.006;2023-06-22T09:30:06;4.20;;;1.70;;
77085;SDS011;66014;53.134;18.006;2023-06-22T09:32:33;2.50;;;1.60;;
77085;SDS011;66014;53.134;18.006;2023-06-22T09:35:03;3.80;;;1.50;;
77085;SDS011;66014;53.134;18.006;2023-06-22T09:37:32;3.10;;;1.30;;
77085;SDS011;66014;53.134;18.006;2023-06-22T09:39:58;4.20;;;1.60;;
77085;SDS011;66014;53.134;18.006;2023-06-22T09:42:25;2.90;;;1.40;;
77085;SDS011;66014;53.134;18.006;2023-06-22T09:44:51;6.10;;;1.50;;
77085;SDS011;66014;53.134;18.006;2023-06-22T09:47:18;2.70;;;1.40;;
77085;SDS011;66014;53.134;18.006;2023-06-22T09:49:44;2.70;;;1.30;;
77085;SDS011;66014;53.134;18.006;2023-06-22T09:52:11;2.20;;;1.30;;
77085;SDS011;66014;53.134;18.006;2023-06-22T09:54:38;3.70;;;1.80;;
77085;SDS011;66014;53.134;18.006;2023-06-22T09:57:05;2.90;;;1.30;;
77085;SDS011;66014;53.134;18.006;2023-06-22T09:59:31;2.20;;;1.40;;
77085;SDS011;66014;53.134;18.006;2023-06-22T10:01:58;3.60;;;1.80;;
77085;SDS011;66014;53.134;18.006;2023-06-22T10:04:24;2.40;;;1.30;;
77085;SDS011;66014;53.134;18.006;2023-06-22T10:06:51;3.50;;;1.30;;
77085;SDS011;66014;53.134;18.006;2023-06-22T10:09:18;4.50;;;1.80;;
77085;SDS011;66014;53.134;18.006;2023-06-22T10:11:45;4.30;;;1.50;;
77085;SDS011;66014;53.134;18.006;2023-06-22T10:14:11;3.60;;;1.40;;
77085;SDS011;66014;53.134;18.006;2023-06-22T10:16:38;2.90;;;1.30;;
77085;SDS011;66014;53.134;18.006;2023-06-22T10:19:04;2.00;;;1.10;;
77085;SDS011;66014;53.134;18.006;2023-06-22T10:21:31;4.60;;;1.70;;
77085;SDS011;66014;53.134;18.006;2023-06-22T10:23:57;3.10;;;1.60;;
77085;SDS011;66014;53.134;18.006;2023-06-22T10:28:59;3.60;;;1.50;;
77085;SDS011;66014;53.134;18.006;2023-06-22T10:31:26;2.60;;;1.60;;
77085;SDS011;66014;53.134;18.006;2023-06-22T10:33:53;4.00;;;1.40;;
77085;SDS011;66014;53.134;18.006;2023-06-22T10:36:21;7.10;;;1.40;;
77085;SDS011;66014;53.134;18.006;2023-06-22T10:38:48;2.40;;;1.30;;
77085;SDS011;66014;53.134;18.006;2023-06-22T10:41:15;3.10;;;1.30;;
77085;SDS011;66014;53.134;18.006;2023-06-22T10:43:42;2.60;;;1.30;;
77085;SDS011;66014;53.134;18.006;2023-06-22T10:46:09;2.80;;;1.30;;
77085;SDS011;66014;53.134;18.006;2023-06-22T10:48:35;2.50;;;1.60;;
77085;SDS011;66014;53.134;18.006;2023-06-22T10:51:02;3.20;;;1.50;;
77085;SDS011;66014;53.134;18.006;2023-06-22T10:53:28;2.40;;;1.60;;
77085;SDS011;66014;53.134;18.006;2023-06-22T10:55:55;2.60;;;1.30;;
77085;SDS011;66014;53.134;18.006;2023-06-22T10:58:21;3.60;;;1.30;;
77085;SDS011;66014;53.134;18.006;2023-06-22T11:00:48;3.40;;;1.50;;
77085;SDS011;66014;53.134;18.006;2023-06-22T11:03:14;4.70;;;3.00;;
77085;SDS011;66014;53.134;18.006;2023-06-22T11:05:41;2.90;;;1.60;;
77085;SDS011;66014;53.134;18.006;2023-06-22T11:08:08;3.60;;;1.50;;
77085;SDS011;66014;53.134;18.006;2023-06-22T11:10:34;2.30;;;1.20;;
77085;SDS011;66014;53.134;18.006;2023-06-22T11:13:01;4.90;;;1.70;;
77085;SDS011;66014;53.134;18.006;2023-06-22T11:15:29;2.10;;;1.40;;
77085;SDS011;66014;53.134;18.006;2023-06-22T11:17:55;4.20;;;1.50;;
77085;SDS011;66014;53.134;18.006;2023-06-22T11:20:22;6.30;;;1.70;;
77085;SDS011;66014;53.134;18.006;2023-06-22T11:22:48;3.00;;;1.70;;
77085;SDS011;66014;53.134;18.006;2023-06-22T11:25:15;3.40;;;1.50;;
77085;SDS011;66014;53.134;18.006;2023-06-22T11:27:41;2.20;;;1.40;;
77085;SDS011;66014;53.134;18.006;2023-06-22T11:30:08;3.30;;;1.60;;
77085;SDS011;66014;53.134;18.006;2023-06-22T11:32:35;3.20;;;1.30;;
77085;SDS011;66014;53.134;18.006;2023-06-22T11:35:02;2.40;;;1.20;;
77085;SDS011;66014;53.134;18.006;2023-06-22T11:37:29;2.70;;;1.30;;
77085;SDS011;66014;53.134;18.006;2023-06-22T11:39:56;2.00;;;1.20;;
77085;SDS011;66014;53.134;18.006;2023-06-22T11:42:22;4.50;;;1.80;;
77085;SDS011;66014;53.134;18.006;2023-06-22T11:44:49;3.10;;;1.40;;
77085;SDS011;66014;53.134;18.006;2023-06-22T11:47:16;2.60;;;1.30;;
77085;SDS011;66014;53.134;18.006;2023-06-22T11:49:42;4.00;;;1.40;;
77085;SDS011;66014;53.134;18.006;2023-06-22T11:52:09;2.00;;;1.20;;
77085;SDS011;66014;53.134;18.006;2023-06-22T11:54:35;3.70;;;1.40;;
77085;SDS011;66014;53.134;18.006;2023-06-22T11:57:02;4.10;;;1.60;;
77085;SDS011;66014;53.134;18.006;2023-06-22T11:59:29;3.30;;;1.50;;
77085;SDS011;66014;53.134;18.006;2023-06-22T12:01:56;3.40;;;1.70;;
77085;SDS011;66014;53.134;18.006;2023-06-22T12:04:24;3.20;;;1.60;;
77085;SDS011;66014;53.134;18.006;2023-06-22T12:06:51;2.70;;;1.50;;
77085;SDS011;66014;53.134;18.006;2023-06-22T12:09:17;3.90;;;1.40;;
77085;SDS011;66014;53.134;18.006;2023-06-22T12:11:44;2.60;;;1.30;;
77085;SDS011;66014;53.134;18.006;2023-06-22T12:14:10;2.70;;;1.60;;
77085;SDS011;66014;53.134;18.006;2023-06-22T12:16:36;4.10;;;1.40;;
77085;SDS011;66014;53.134;18.006;2023-06-22T12:19:04;3.30;;;1.30;;
77085;SDS011;66014;53.134;18.006;2023-06-22T12:21:30;3.30;;;1.60;;
77085;SDS011;66014;53.134;18.006;2023-06-22T12:23:57;3.20;;;1.30;;
77085;SDS011;66014;53.134;18.006;2023-06-22T12:26:23;4.20;;;1.50;;
77085;SDS011;66014;53.134;18.006;2023-06-22T12:28:50;2.60;;;1.50;;
77085;SDS011;66014;53.134;18.006;2023-06-22T12:31:17;3.00;;;1.50;;
77085;SDS011;66014;53.134;18.006;2023-06-22T12:33:43;3.40;;;1.90;;
77085;SDS011;66014;53.134;18.006;2023-06-22T12:36:10;2.80;;;1.50;;
77085;SDS011;66014;53.134;18.006;2023-06-22T12:38:36;3.40;;;1.80;;
77085;SDS011;66014;53.134;18.006;2023-06-22T12:41:03;3.80;;;1.40;;
77085;SDS011;66014;53.134;18.006;2023-06-22T12:43:29;3.00;;;1.50;;
77085;SDS011;66014;53.134;18.006;2023-06-22T12:45:59;3.30;;;1.70;;
77085;SDS011;66014;53.134;18.006;2023-06-22T12:51:29;3.90;;;1.50;;
77085;SDS011;66014;53.134;18.006;2023-06-22T12:53:56;2.70;;;1.60;;
77085;SDS011;66014;53.134;18.006;2023-06-22T12:56:23;4.90;;;2.10;;
77085;SDS011;66014;53.134;18.006;2023-06-22T12:58:49;3.90;;;1.90;;
77085;SDS011;66014;53.134;18.006;2023-06-22T13:01:17;2.70;;;1.60;;
77085;SDS011;66014;53.134;18.006;2023-06-22T13:03:46;3.90;;;1.80;;
77085;SDS011;66014;53.134;18.006;2023-06-22T13:06:12;3.50;;;1.90;;
77085;SDS011;66014;53.134;18.006;2023-06-22T13:08:39;6.50;;;1.90;;
77085;SDS011;66014;53.134;18.006;2023-06-22T13:11:05;3.90;;;2.00;;
77085;SDS011;66014;53.134;18.006;2023-06-22T13:13:32;3.40;;;1.70;;
77085;SDS011;66014;53.134;18.006;2023-06-22T13:16:00;3.90;;;1.90;;
77085;SDS011;66014;53.134;18.006;2023-06-22T13:18:27;3.30;;;1.90;;
77085;SDS011;66014;53.134;18.006;2023-06-22T13:20:53;3.70;;;2.30;;
77085;SDS011;66014;53.134;18.006;2023-06-22T13:23:21;5.80;;;2.30;;
77085;SDS011;66014;53.134;18.006;2023-06-22T13:25:47;4.70;;;2.20;;
77085;SDS011;66014;53.134;18.006;2023-06-22T13:28:14;4.80;;;1.80;;
77085;SDS011;66014;53.134;18.006;2023-06-22T13:30:42;4.60;;;1.60;;
77085;SDS011;66014;53.134;18.006;2023-06-22T13:33:08;3.80;;;2.20;;
77085;SDS011;66014;53.134;18.006;2023-06-22T13:35:35;3.20;;;1.80;;
77085;SDS011;66014;53.134;18.006;2023-06-22T13:38:02;2.90;;;1.80;;
77085;SDS011;66014;53.134;18.006;2023-06-22T13:40:28;3.10;;;2.00;;
77085;SDS011;66014;53.134;18.006;2023-06-22T13:42:55;4.80;;;2.00;;
77085;SDS011;66014;53.134;18.006;2023-06-22T13:45:22;3.60;;;1.90;;
77085;SDS011;66014;53.134;18.006;2023-06-22T13:47:49;3.90;;;2.00;;
77085;SDS011;66014;53.134;18.006;2023-06-22T13:50:16;4.70;;;2.00;;
77085;SDS011;66014;53.134;18.006;2023-06-22T13:52:42;3.60;;;1.70;;
77085;SDS011;66014;53.134;18.006;2023-06-22T13:55:09;3.90;;;2.10;;
77085;SDS011;66014;53.134;18.006;2023-06-22T13:57:36;4.20;;;1.90;;
77085;SDS011;66014;53.134;18.006;2023-06-22T14:00:04;3.20;;;1.80;;
77085;SDS011;66014;53.134;18.006;2023-06-22T14:02:34;4.00;;;2.10;;
77085;SDS011;66014;53.134;18.006;2023-06-22T14:05:01;3.60;;;1.60;;
77085;SDS011;66014;53.134;18.006;2023-06-22T14:07:29;4.50;;;1.90;;
77085;SDS011;66014;53.134;18.006;2023-06-22T14:09:55;6.20;;;2.00;;
77085;SDS011;66014;53.134;18.006;2023-06-22T14:12:22;7.00;;;2.40;;
77085;SDS011;66014;53.134;18.006;2023-06-22T14:14:48;4.10;;;1.90;;
77085;SDS011;66014;53.134;18.006;2023-06-22T14:17:15;3.00;;;1.60;;
77085;SDS011;66014;53.134;18.006;2023-06-22T14:19:41;5.00;;;1.80;;
77085;SDS011;66014;53.134;18.006;2023-06-22T14:22:08;4.20;;;1.70;;
77085;SDS011;66014;53.134;18.006;2023-06-22T14:24:34;4.00;;;2.10;;
77085;SDS011;66014;53.134;18.006;2023-06-22T14:27:01;4.30;;;2.00;;
77085;SDS011;66014;53.134;18.006;2023-06-22T14:29:31;3.80;;;2.00;;
77085;SDS011;66014;53.134;18.006;2023-06-22T14:31:57;7.50;;;2.30;;
77085;SDS011;66014;53.134;18.006;2023-06-22T14:34:23;5.10;;;3.50;;
77085;SDS011;66014;53.134;18.006;2023-06-22T14:36:50;4.20;;;2.10;;
77085;SDS011;66014;53.134;18.006;2023-06-22T14:39:16;4.00;;;2.30;;
77085;SDS011;66014;53.134;18.006;2023-06-22T14:41:43;4.30;;;2.10;;
77085;SDS011;66014;53.134;18.006;2023-06-22T14:44:09;5.20;;;2.10;;
77085;SDS011;66014;53.134;18.006;2023-06-22T14:46:36;3.70;;;2.20;;
77085;SDS011;66014;53.134;18.006;2023-06-22T14:49:02;6.80;;;2.90;;
77085;SDS011;66014;53.134;18.006;2023-06-22T14:51:29;4.50;;;2.00;;
77085;SDS011;66014;53.134;18.006;2023-06-22T14:53:55;5.50;;;2.00;;
77085;SDS011;66014;53.134;18.006;2023-06-22T14:56:22;5.00;;;2.40;;